createdAt,value
2019-04-25T00:01:26.194Z,1.40
2019-04-25T00:03:54.906Z,1.33
2019-04-25T00:06:24.122Z,1.50
2019-04-25T00:08:53.473Z,1.30
2019-04-25T00:11:22.513Z,1.33
2019-04-25T00:13:51.610Z,1.33
2019-04-25T00:16:21.773Z,1.40
2019-04-25T00:18:51.699Z,1.50
2019-04-25T00:21:35.895Z,1.40
2019-04-25T00:24:10.188Z,1.37
2019-04-25T00:26:44.043Z,1.50
2019-04-25T00:29:13.198Z,1.40
2019-04-25T00:31:43.737Z,1.57
2019-04-25T00:34:12.730Z,1.90
2019-04-25T00:36:43.492Z,1.43
2019-04-25T00:39:11.948Z,1.50
2019-04-25T00:41:42.370Z,1.40
2019-04-25T00:44:12.153Z,1.50
2019-04-25T00:46:44.813Z,1.37
2019-04-25T00:49:12.259Z,1.43
2019-04-25T00:51:42.665Z,1.60
2019-04-25T00:54:11.947Z,1.60
2019-04-25T00:56:43.296Z,1.40
2019-04-25T00:59:16.658Z,1.40
2019-04-25T01:02:03.287Z,1.60
2019-04-25T01:04:33.695Z,1.20
2019-04-25T01:07:02.526Z,1.37
2019-04-25T01:09:32.324Z,1.70
2019-04-25T01:12:03.743Z,1.70
2019-04-25T01:14:31.695Z,1.53
2019-04-25T01:17:02.058Z,1.50
2019-04-25T01:19:30.757Z,1.53
2019-04-25T01:21:59.461Z,1.20
2019-04-25T01:24:28.152Z,1.57
2019-04-25T01:26:56.897Z,1.30
2019-04-25T01:29:25.585Z,1.30
2019-04-25T01:31:55.239Z,1.30
2019-04-25T01:34:34.278Z,1.60
2019-04-25T01:37:13.952Z,1.43
2019-04-25T01:40:00.926Z,1.70
2019-04-25T01:42:54.786Z,1.20
2019-04-25T01:45:27.569Z,1.40
2019-04-25T01:47:56.322Z,1.53
2019-04-25T01:50:25.157Z,1.30
2019-04-25T01:52:55.337Z,1.30
2019-04-25T01:55:24.389Z,1.40
2019-04-25T01:57:54.598Z,1.37
2019-04-25T02:00:33.281Z,1.20
2019-04-25T02:03:03.690Z,1.50
2019-04-25T02:05:33.786Z,1.30
2019-04-25T02:08:04.417Z,1.30
2019-04-25T02:10:34.414Z,1.40
2019-04-25T02:13:05.058Z,1.77
2019-04-25T02:15:33.774Z,1.50
2019-04-25T02:18:03.782Z,1.30
2019-04-25T02:20:33.941Z,1.40
2019-04-25T02:23:04.195Z,1.60
2019-04-25T02:25:33.304Z,1.57
2019-04-25T02:28:03.164Z,1.50
2019-04-25T02:30:35.315Z,1.33
2019-04-25T02:33:08.925Z,1.50
2019-04-25T02:35:34.933Z,1.50
2019-04-25T02:38:08.348Z,1.70
2019-04-25T02:40:34.418Z,1.60
2019-04-25T02:43:07.560Z,1.60
2019-04-25T02:46:05.843Z,1.50
2019-04-25T02:48:50.079Z,1.40
2019-04-25T02:51:28.005Z,1.60
2019-04-25T02:53:57.889Z,1.47
2019-04-25T02:56:34.107Z,1.43
2019-04-25T02:58:58.322Z,1.30
2019-04-25T03:01:27.323Z,1.50
2019-04-25T03:03:57.441Z,1.40
2019-04-25T03:06:26.749Z,1.47
2019-04-25T03:08:55.439Z,1.40
2019-04-25T03:11:24.581Z,1.40
2019-04-25T03:13:54.582Z,1.20
2019-04-25T03:16:25.097Z,1.70
2019-04-25T03:19:07.620Z,1.30
2019-04-25T03:21:36.470Z,1.60
2019-04-25T03:24:07.981Z,1.40
2019-04-25T03:26:40.334Z,1.43
2019-04-25T03:29:06.217Z,1.83
2019-04-25T03:31:35.165Z,1.43
2019-04-25T03:34:09.449Z,1.23
2019-04-25T03:36:34.308Z,1.50
2019-04-25T03:39:04.271Z,1.40
2019-04-25T03:41:34.129Z,1.50
2019-04-25T03:44:05.380Z,1.60
2019-04-25T03:46:33.742Z,1.53
2019-04-25T03:49:04.133Z,1.40
2019-04-25T03:51:33.795Z,1.47
2019-04-25T03:54:04.898Z,1.37
2019-04-25T03:56:33.412Z,1.40
2019-04-25T03:59:04.828Z,1.30
2019-04-25T04:01:34.124Z,1.70
2019-04-25T04:04:05.406Z,1.50
2019-04-25T04:06:34.046Z,1.60
2019-04-25T04:09:05.509Z,1.50
2019-04-25T04:11:34.849Z,1.50
2019-04-25T04:14:04.933Z,1.40
2019-04-25T04:16:38.002Z,1.40
2019-04-25T04:19:06.941Z,1.50
2019-04-25T04:21:55.330Z,1.70
2019-04-25T04:24:27.411Z,1.53
2019-04-25T04:27:10.733Z,1.70
2019-04-25T04:29:39.644Z,1.30
2019-04-25T04:32:08.667Z,1.20
2019-04-25T04:34:37.472Z,1.27
2019-04-25T04:37:07.494Z,1.60
2019-04-25T04:39:36.303Z,1.20
2019-04-25T04:42:05.027Z,1.20
2019-04-25T04:44:34.333Z,1.20
2019-04-25T04:47:03.970Z,1.43
2019-04-25T04:49:34.103Z,1.30
2019-04-25T04:52:04.488Z,1.40
2019-04-25T04:54:34.443Z,1.60
2019-04-25T04:57:16.796Z,1.40
2019-04-25T04:59:34.397Z,1.43
2019-04-25T05:02:15.821Z,1.50
2019-04-25T05:05:07.226Z,1.40
2019-04-25T05:07:48.706Z,1.30
2019-04-25T05:10:19.049Z,1.67
2019-04-25T05:12:48.963Z,1.23
2019-04-25T05:15:19.145Z,1.30
2019-04-25T05:17:48.559Z,1.30
2019-04-25T05:20:18.848Z,1.43
2019-04-25T05:22:48.254Z,1.10
2019-04-25T05:25:17.857Z,1.50
2019-04-25T05:27:59.625Z,1.30
2019-04-25T05:30:26.599Z,1.43
2019-04-25T05:32:56.318Z,1.50
2019-04-25T05:35:25.581Z,1.50
2019-04-25T05:37:54.902Z,1.60
2019-04-25T05:40:25.369Z,1.30
2019-04-25T05:43:03.328Z,1.30
2019-04-25T05:45:34.077Z,1.27
2019-04-25T05:48:05.719Z,1.30
2019-04-25T05:50:34.399Z,1.20
2019-04-25T05:53:04.313Z,1.33
2019-04-25T05:55:34.313Z,1.50
2019-04-25T05:58:03.932Z,1.30
2019-04-25T06:00:34.106Z,1.20
2019-04-25T06:03:03.860Z,1.30
2019-04-25T06:05:33.595Z,1.57
2019-04-25T06:08:04.315Z,1.20
2019-04-25T06:10:47.426Z,1.10
2019-04-25T06:13:39.465Z,1.40
2019-04-25T06:16:27.004Z,1.30
2019-04-25T06:19:34.073Z,1.07
2019-04-25T06:22:03.403Z,1.33
2019-04-25T06:24:41.328Z,1.20
2019-04-25T06:27:29.618Z,1.60
2019-04-25T06:30:05.819Z,1.40
2019-04-25T06:32:35.576Z,1.10
2019-04-25T06:35:05.765Z,1.30
2019-04-25T06:37:35.203Z,1.30
2019-04-25T06:40:06.203Z,1.43
2019-04-25T06:42:36.097Z,1.40
2019-04-25T06:45:32.728Z,1.40
2019-04-25T06:48:30.279Z,1.30
2019-04-25T06:50:59.545Z,1.17
2019-04-25T06:53:28.812Z,1.60
2019-04-25T06:55:58.112Z,1.43
2019-04-25T06:58:28.421Z,1.23
2019-04-25T07:01:00.969Z,1.43
2019-04-25T07:03:29.415Z,1.50
2019-04-25T07:05:58.763Z,1.40
2019-04-25T07:08:28.031Z,1.40
2019-04-25T07:10:57.314Z,1.30
2019-04-25T07:13:26.980Z,1.40
2019-04-25T07:15:56.347Z,1.20
2019-04-25T07:18:31.208Z,1.30
2019-04-25T07:20:56.693Z,1.30
2019-04-25T07:23:25.978Z,1.67
2019-04-25T07:26:04.717Z,1.30
2019-04-25T07:28:44.501Z,1.33
2019-04-25T07:31:33.493Z,1.17
2019-04-25T07:34:13.299Z,1.20
2019-04-25T07:36:43.078Z,1.53
2019-04-25T07:39:13.481Z,1.37
2019-04-25T07:41:44.171Z,1.50
2019-04-25T07:44:14.711Z,1.67
2019-04-25T07:46:44.180Z,1.50
2019-04-25T07:49:13.626Z,1.40
2019-04-25T07:51:43.196Z,1.30
2019-04-25T07:54:14.395Z,1.40
2019-04-25T07:56:43.825Z,1.10
2019-04-25T07:59:13.916Z,1.30
2019-04-25T08:01:43.719Z,1.30
2019-04-25T08:04:13.644Z,1.40
2019-04-25T08:06:44.531Z,1.57
2019-04-25T08:09:15.588Z,1.43
2019-04-25T08:11:45.079Z,1.27
2019-04-25T08:14:36.110Z,1.20
2019-04-25T08:17:06.108Z,1.40
2019-04-25T08:19:35.838Z,1.37
2019-04-25T08:22:05.421Z,1.40
2019-04-25T08:24:37.250Z,1.30
2019-04-25T08:27:06.935Z,1.33
2019-04-25T08:29:38.065Z,1.27
2019-04-25T08:32:07.218Z,1.20
2019-04-25T08:34:37.285Z,1.10
2019-04-25T08:37:17.513Z,1.30
2019-04-25T08:39:38.761Z,1.20
2019-04-25T08:42:08.985Z,1.17
2019-04-25T08:44:39.168Z,1.40
2019-04-25T08:47:08.636Z,1.33
2019-04-25T08:49:55.576Z,1.20
2019-04-25T08:52:24.863Z,1.07
2019-04-25T08:55:04.632Z,1.10
2019-04-25T08:58:00.861Z,1.60
2019-04-25T09:00:42.912Z,1.20
2019-04-25T09:03:15.727Z,1.20
2019-04-25T09:05:47.013Z,1.22
2019-04-25T09:08:16.358Z,1.00
2019-04-25T09:10:45.743Z,1.03
2019-04-25T09:13:15.068Z,1.10
2019-04-25T09:15:45.754Z,0.97
2019-04-25T09:18:15.906Z,1.00
2019-04-25T09:20:46.704Z,1.17
2019-04-25T09:23:16.189Z,1.00
2019-04-25T09:25:46.179Z,1.23
2019-04-25T09:28:15.715Z,1.10
2019-04-25T09:30:45.911Z,1.20
2019-04-25T09:33:15.406Z,1.27
2019-04-25T09:35:45.832Z,1.30
2019-04-25T09:38:17.039Z,1.00
2019-04-25T09:40:46.693Z,1.17
2019-04-25T09:43:16.095Z,0.90
2019-04-25T09:46:07.163Z,1.20
2019-04-25T09:48:55.419Z,1.13
2019-04-25T09:51:31.278Z,1.10
2019-04-25T09:54:19.541Z,1.10
2019-04-25T09:56:50.533Z,1.03
2019-04-25T09:59:27.891Z,1.00
2019-04-25T10:01:53.428Z,1.30
2019-04-25T10:04:23.101Z,0.90
2019-04-25T10:06:53.470Z,1.00
2019-04-25T10:09:23.814Z,1.10
2019-04-25T10:11:54.800Z,1.07
2019-04-25T10:14:47.930Z,0.83
2019-04-25T10:17:18.482Z,0.93
2019-04-25T10:19:48.003Z,0.87
2019-04-25T10:22:17.422Z,1.10
2019-04-25T10:24:58.343Z,0.80
2019-04-25T10:27:17.657Z,0.90
2019-04-25T10:29:53.047Z,0.87
2019-04-25T10:32:17.961Z,0.70
2019-04-25T10:34:47.299Z,0.90
2019-04-25T10:37:16.992Z,1.03
2019-04-25T10:39:46.270Z,1.37
2019-04-25T10:42:15.642Z,1.30
2019-04-25T10:44:46.998Z,1.30
2019-04-25T10:47:15.951Z,1.27
2019-04-25T10:49:45.917Z,1.00
2019-04-25T10:52:15.639Z,0.90
2019-04-25T10:54:45.761Z,1.20
2019-04-25T10:57:16.022Z,1.03
2019-04-25T10:59:55.294Z,1.30
2019-04-25T11:02:16.357Z,1.00
2019-04-25T11:04:54.516Z,1.00
2019-04-25T11:07:24.214Z,1.10
2019-04-25T11:09:54.929Z,1.10
2019-04-25T11:12:24.585Z,0.93
2019-04-25T11:14:56.139Z,1.07
2019-04-25T11:17:25.100Z,1.10
2019-04-25T11:19:55.468Z,0.77
2019-04-25T11:22:24.873Z,1.10
2019-04-25T11:24:54.183Z,1.30
2019-04-25T11:27:24.045Z,1.10
2019-04-25T11:30:02.850Z,0.90
2019-04-25T11:32:27.302Z,1.00
2019-04-25T11:34:57.332Z,0.90
2019-04-25T11:37:28.571Z,1.20
2019-04-25T11:40:04.341Z,0.90
2019-04-25T11:42:33.941Z,1.07
2019-04-25T11:45:05.922Z,1.10
2019-04-25T11:47:35.812Z,0.80
2019-04-25T11:50:06.078Z,1.00
2019-04-25T11:52:35.419Z,1.00
2019-04-25T11:55:06.449Z,1.10
2019-04-25T11:57:35.822Z,1.20
2019-04-25T12:00:06.141Z,0.90
2019-04-25T12:02:35.387Z,1.13
2019-04-25T12:05:05.139Z,1.00
2019-04-25T12:07:34.399Z,1.10
2019-04-25T12:10:04.322Z,1.23
2019-04-25T12:12:34.710Z,1.20
2019-04-25T12:15:05.366Z,1.17
2019-04-25T12:17:35.286Z,1.10
2019-04-25T12:20:05.044Z,1.10
2019-04-25T12:22:34.685Z,1.00
2019-04-25T12:25:04.684Z,1.10
2019-04-25T12:27:34.058Z,1.00
2019-04-25T12:30:36.777Z,0.93
2019-04-25T12:32:53.901Z,0.77
2019-04-25T12:35:24.322Z,1.10
2019-04-25T12:37:54.117Z,1.03
2019-04-25T12:40:24.534Z,0.80
2019-04-25T12:42:54.370Z,0.80
2019-04-25T12:45:49.285Z,1.00
2019-04-25T12:48:18.709Z,0.90
2019-04-25T12:50:58.664Z,0.90
2019-04-25T12:53:27.980Z,0.90
2019-04-25T12:55:57.261Z,0.93
2019-04-25T12:58:26.580Z,0.87
2019-04-25T13:00:59.706Z,1.00
2019-04-25T13:03:26.994Z,0.90
2019-04-25T13:05:58.423Z,0.90
2019-04-25T13:08:27.912Z,0.90
2019-04-25T13:11:07.480Z,1.10
2019-04-25T13:13:28.198Z,0.95
2019-04-25T13:15:57.710Z,0.97
2019-04-25T13:18:27.054Z,1.10
2019-04-25T13:20:57.516Z,0.93
2019-04-25T13:23:27.424Z,1.10
2019-04-25T13:25:57.309Z,0.90
2019-04-25T13:28:45.797Z,1.00
2019-04-25T13:31:33.149Z,0.90
2019-04-25T13:34:08.507Z,0.90
2019-04-25T13:36:37.787Z,0.97
2019-04-25T13:39:14.718Z,1.03
2019-04-25T13:41:44.816Z,0.97
2019-04-25T13:44:14.551Z,1.20
2019-04-25T13:46:44.067Z,1.00
2019-04-25T13:49:14.163Z,1.17
2019-04-25T13:51:43.492Z,0.90
2019-04-25T13:54:13.075Z,1.10
2019-04-25T13:56:44.026Z,0.90
2019-04-25T13:59:13.539Z,1.00
2019-04-25T14:01:44.198Z,1.10
2019-04-25T14:04:14.216Z,1.03
2019-04-25T14:06:43.607Z,1.00
2019-04-25T14:09:16.859Z,0.97
2019-04-25T14:11:46.203Z,0.80
2019-04-25T14:14:15.588Z,1.00
2019-04-25T14:17:06.816Z,0.90
2019-04-25T14:19:54.125Z,0.90
2019-04-25T14:22:23.700Z,1.30
2019-04-25T14:24:54.097Z,1.10
2019-04-25T14:27:25.041Z,1.10
2019-04-25T14:29:54.777Z,1.00
2019-04-25T14:32:27.177Z,0.90
2019-04-25T14:34:55.867Z,1.00
2019-04-25T14:37:29.305Z,1.03
2019-04-25T14:39:56.340Z,1.00
2019-04-25T14:42:26.484Z,0.90
2019-04-25T14:44:55.871Z,1.10
2019-04-25T14:47:25.147Z,1.20
2019-04-25T14:49:54.487Z,1.10
2019-04-25T14:52:24.514Z,1.20
2019-04-25T14:55:00.055Z,1.10
2019-04-25T14:57:31.799Z,1.20
2019-04-25T15:00:04.516Z,1.20
2019-04-25T15:02:32.714Z,1.10
2019-04-25T15:05:02.057Z,1.10
2019-04-25T15:07:31.456Z,1.00
2019-04-25T15:10:00.826Z,1.10
2019-04-25T15:12:30.171Z,1.10
2019-04-25T15:14:59.662Z,1.10
2019-04-25T15:17:29.107Z,1.27
2019-04-25T15:19:58.401Z,1.23
2019-04-25T15:22:27.981Z,1.10
2019-04-25T15:24:57.390Z,1.20
2019-04-25T15:27:26.714Z,1.20
2019-04-25T15:29:55.980Z,1.23
2019-04-25T15:32:28.290Z,0.93
2019-04-25T15:34:58.203Z,0.90
2019-04-25T15:37:52.287Z,1.00
2019-04-25T15:40:31.200Z,1.10
2019-04-25T15:43:11.207Z,1.10
2019-04-25T15:45:48.763Z,0.90
2019-04-25T15:48:18.124Z,1.00
2019-04-25T15:50:47.458Z,1.00
2019-04-25T15:53:16.763Z,0.97
2019-04-25T15:55:46.135Z,1.00
2019-04-25T15:58:15.444Z,1.00
2019-04-25T16:00:44.755Z,0.83
2019-04-25T16:03:14.578Z,0.90
2019-04-25T16:05:44.059Z,1.00
2019-04-25T16:08:13.388Z,1.17
2019-04-25T16:10:42.689Z,1.00
2019-04-25T16:13:12.091Z,0.93
2019-04-25T16:15:41.569Z,1.00
2019-04-25T16:18:11.497Z,1.30
2019-04-25T16:20:40.773Z,1.30
2019-04-25T16:23:10.351Z,1.20
2019-04-25T16:25:42.533Z,0.90
2019-04-25T16:28:11.924Z,0.80
2019-04-25T16:30:41.406Z,1.00
2019-04-25T16:33:10.816Z,0.97
2019-04-25T16:35:40.260Z,1.10
2019-04-25T16:38:09.567Z,1.00
2019-04-25T16:40:38.927Z,0.93
2019-04-25T16:43:10.960Z,0.90
2019-04-25T16:45:41.304Z,0.90
2019-04-25T16:48:10.817Z,1.20
2019-04-25T16:50:40.141Z,1.10
2019-04-25T16:53:09.433Z,1.20
2019-04-25T16:55:38.865Z,1.00
2019-04-25T16:58:08.582Z,1.10
2019-04-25T17:00:55.458Z,1.00
2019-04-25T17:03:27.222Z,1.00
2019-04-25T17:05:56.529Z,1.20
2019-04-25T17:08:26.031Z,1.00
2019-04-25T17:10:55.410Z,0.90
2019-04-25T17:13:26.240Z,0.83
2019-04-25T17:16:25.670Z,0.93
2019-04-25T17:18:58.935Z,0.80
2019-04-25T17:21:28.397Z,0.90
2019-04-25T17:23:57.772Z,0.90
2019-04-25T17:26:27.648Z,0.90
2019-04-25T17:28:59.274Z,0.70
2019-04-25T17:31:47.560Z,0.90
2019-04-25T17:34:26.632Z,0.80
2019-04-25T17:37:08.668Z,1.00
2019-04-25T17:39:42.161Z,0.80
2019-04-25T17:42:11.574Z,0.90
2019-04-25T17:44:40.889Z,0.80
2019-04-25T17:47:10.249Z,0.90
2019-04-25T17:49:39.574Z,0.90
2019-04-25T17:52:09.038Z,0.87
2019-04-25T17:54:38.898Z,0.90
2019-04-25T17:57:08.395Z,0.77
2019-04-25T17:59:37.673Z,0.77
2019-04-25T18:02:07.159Z,0.73
2019-04-25T18:04:36.471Z,0.90
2019-04-25T18:07:06.142Z,0.80
2019-04-25T18:09:35.663Z,0.80
2019-04-25T18:12:05.928Z,0.80
2019-04-25T18:14:36.324Z,0.80
2019-04-25T18:17:05.911Z,0.70
2019-04-25T18:19:39.306Z,0.80
2019-04-25T18:22:16.146Z,0.90
2019-04-25T18:25:05.561Z,0.80
2019-04-25T18:27:41.918Z,0.80
2019-04-25T18:30:11.402Z,0.90
2019-04-25T18:32:46.784Z,1.00
2019-04-25T18:35:24.162Z,0.90
2019-04-25T18:38:24.749Z,0.87
2019-04-25T18:41:09.113Z,0.93
2019-04-25T18:43:42.526Z,0.80
2019-04-25T18:46:18.388Z,0.90
2019-04-25T18:48:47.687Z,0.90
2019-04-25T18:51:16.956Z,1.23
2019-04-25T18:54:07.998Z,0.80
2019-04-25T18:56:41.584Z,0.80
2019-04-25T18:59:42.343Z,1.00
2019-04-25T19:02:29.629Z,0.80
2019-04-25T19:05:16.925Z,0.83
2019-04-25T19:07:47.362Z,0.87
2019-04-25T19:10:17.169Z,0.83
2019-04-25T19:12:47.342Z,1.00
2019-04-25T19:15:16.926Z,0.83
2019-04-25T19:17:47.308Z,0.90
2019-04-25T19:20:16.915Z,1.03
2019-04-25T19:22:46.302Z,1.00
2019-04-25T19:25:16.182Z,0.90
2019-04-25T19:27:46.464Z,1.00
2019-04-25T19:30:17.913Z,1.10
2019-04-25T19:32:47.283Z,0.90
2019-04-25T19:35:16.634Z,1.00
2019-04-25T19:37:46.467Z,1.10
2019-04-25T19:40:25.176Z,1.00
2019-04-25T19:43:01.212Z,0.90
2019-04-25T19:45:33.230Z,1.07
2019-04-25T19:48:01.709Z,0.90
2019-04-25T19:50:31.093Z,0.90
2019-04-25T19:53:00.419Z,0.90
2019-04-25T19:55:29.836Z,0.77
2019-04-25T19:57:59.245Z,0.80
2019-04-25T20:00:28.627Z,0.93
2019-04-25T20:03:04.416Z,1.00
2019-04-25T20:05:40.506Z,0.80
2019-04-25T20:08:19.309Z,1.00
2019-04-25T20:11:09.277Z,1.10
2019-04-25T20:13:38.626Z,1.00
2019-04-25T20:16:08.105Z,1.00
2019-04-25T20:18:37.496Z,1.00
2019-04-25T20:21:06.780Z,1.10
2019-04-25T20:23:36.131Z,1.03
2019-04-25T20:26:05.576Z,1.00
2019-04-25T20:28:35.080Z,0.90
2019-04-25T20:31:04.426Z,0.90
2019-04-25T20:33:33.771Z,0.87
2019-04-25T20:36:03.107Z,1.00
2019-04-25T20:38:32.428Z,0.90
2019-04-25T20:41:01.950Z,1.00
2019-04-25T20:43:31.254Z,0.80
2019-04-25T20:46:00.605Z,0.90
2019-04-25T20:48:29.888Z,1.10
2019-04-25T20:50:59.207Z,1.00
2019-04-25T20:53:28.534Z,1.03
2019-04-25T20:55:57.859Z,1.00
2019-04-25T20:58:27.155Z,1.00
2019-04-25T21:00:58.102Z,0.90
2019-04-25T21:03:27.473Z,0.90
2019-04-25T21:06:04.729Z,1.03
2019-04-25T21:08:34.073Z,1.20
2019-04-25T21:11:03.747Z,0.90
2019-04-25T21:13:57.963Z,1.00
2019-04-25T21:16:52.140Z,1.10
2019-04-25T21:19:29.912Z,1.10
2019-04-25T21:21:59.254Z,1.00
2019-04-25T21:24:29.754Z,1.03
2019-04-25T21:26:59.077Z,1.10
2019-04-25T21:29:28.470Z,1.10
2019-04-25T21:31:58.861Z,1.07
2019-04-25T21:34:29.628Z,1.00
2019-04-25T21:36:59.776Z,1.30
2019-04-25T21:39:39.218Z,1.13
2019-04-25T21:42:19.517Z,1.17
2019-04-25T21:44:49.100Z,1.20
2019-04-25T21:47:18.398Z,1.10
2019-04-25T21:49:48.053Z,1.00
2019-04-25T21:52:17.717Z,1.23
2019-04-25T21:54:48.640Z,1.17
2019-04-25T21:57:18.299Z,1.13
2019-04-25T21:59:58.978Z,1.10
2019-04-25T22:02:19.467Z,1.40
2019-04-25T22:04:49.055Z,1.20
2019-04-25T22:07:18.689Z,1.17
2019-04-25T22:09:48.239Z,1.30
2019-04-25T22:12:17.932Z,1.37
2019-04-25T22:14:47.173Z,1.37
2019-04-25T22:17:16.456Z,1.40
2019-04-25T22:19:46.086Z,1.43
2019-04-25T22:22:15.723Z,1.40
2019-04-25T22:24:45.326Z,1.20
2019-04-25T22:27:20.670Z,1.17
2019-04-25T22:29:58.799Z,1.10
2019-04-25T22:32:41.095Z,1.40
2019-04-25T22:35:18.960Z,1.20
2019-04-25T22:37:48.301Z,1.40
2019-04-25T22:40:17.516Z,1.30
2019-04-25T22:42:46.781Z,1.20
2019-04-25T22:45:16.068Z,1.43
2019-04-25T22:47:45.351Z,1.30
2019-04-25T22:50:14.637Z,1.40
2019-04-25T22:52:43.914Z,1.30
2019-04-25T22:55:13.214Z,1.20
2019-04-25T22:57:42.866Z,1.30
2019-04-25T23:00:20.038Z,1.30
2019-04-25T23:02:55.499Z,1.60
2019-04-25T23:05:31.479Z,1.70
2019-04-25T23:08:01.593Z,1.20
2019-04-25T23:10:32.055Z,1.50
2019-04-25T23:13:03.206Z,1.40
2019-04-25T23:15:32.326Z,1.50
2019-04-25T23:18:02.747Z,1.40
2019-04-25T23:20:32.685Z,1.30
2019-04-25T23:23:01.992Z,1.47
2019-04-25T23:25:49.177Z,1.40
2019-04-25T23:28:20.894Z,1.27
2019-04-25T23:31:05.392Z,1.40
2019-04-25T23:33:35.483Z,1.67
2019-04-25T23:36:05.623Z,1.67
2019-04-25T23:38:36.062Z,1.70
2019-04-25T23:41:05.898Z,1.63
2019-04-25T23:43:35.297Z,1.60
2019-04-25T23:46:04.600Z,1.47
2019-04-25T23:48:35.054Z,1.70
2019-04-25T23:51:05.095Z,1.60
2019-04-25T23:53:35.692Z,1.60
2019-04-25T23:56:04.930Z,1.60
2019-04-25T23:58:34.168Z,1.50
